KJXN/JXN METAR and TAF weather

Enter ICAO airport designator
Station Type Date Time Source
KJXN METAR 2018/12/13 21:56 UTC NOAA

KJXN 132156Z 11004KT 8SM CLR 03/M03 A3014 RMK AO2 SLP217 T00281028


Station Type Date Time Source
KJXN Decoded METAR 2018/12/13 21:56 UTC NOAA

JACKSON COUNTY-REYNOLDS, MI, United States (KJXN) 42-16N 084-28W
Dec 13, 2018 - 04:56 PM EST / 2018.12.13 2156 UTC
Wind: from the ESE (110 degrees) at 5 MPH (4 KT):0
Visibility: 8 mile(s):0
Sky conditions: clear
Temperature: 37.0 F (2.8 C)
Dew Point: 27.0 F (-2.8 C)
Relative Humidity: 66%
Pressure (altimeter): 30.14 in. Hg (1020 hPa)
ob: KJXN 132156Z 11004KT 8SM CLR 03/M03 A3014 RMK AO2 SLP217 T00281028
cycle: 22

Station Type Date Time Source
KJXN TAF 2018/12/13 18:48 UTC NOAA

TAF KJXN 131747Z 1318/1418 15005KT P6SM SCT150
FM140100 12004KT P6SM BKN025
FM140400 11004KT 4SM -RA BR OVC015
FM140600 09004KT 2SM RA BR OVC006
FM141200 07003KT 2SM -RA BR OVC004
FM141600 VRB03KT 5SM BR BKN009


Example: see airport list